Time;durP1;ratioP1;P1;durP2;ratioP2;P2;SDS_P1;SDS_P2;PMS_P1;PMS_P2;Temp;Humidity;BMP_temperature;BMP_pressure;BME280_temperature;BME280_humidity;BME280_pressure;Samples;Min_cycle;Max_cycle;Signal;HPM_P1;HPM_P2
2023/12/29 00:00:26;;;;;;;2.27;1.90;;;;;;;9.55;100.00;95811.97;7403086;19;20494;-90
2023/12/29 00:03:07;;;;;;;4.07;3.67;;;;;;;9.28;100.00;95765.03;7401122;19;20383;-90
2023/12/29 00:05:48;;;;;;;3.30;3.00;;;;;;;9.46;100.00;95803.31;7402572;19;20399;-90
2023/12/29 00:08:30;;;;;;;6.30;3.50;;;;;;;9.39;100.00;95781.25;7403230;19;20372;-90
2023/12/29 00:11:20;;;;;;;3.73;3.43;;;;;;;9.39;100.00;95796.97;7402222;19;20375;-90
2023/12/29 00:14:01;;;;;;;3.00;2.67;;;;;;;9.23;100.00;95763.34;7402533;19;20376;-89
2023/12/29 00:16:43;;;;;;;2.80;2.60;;;;;;;9.49;100.00;95807.19;7402550;19;20866;-91
2023/12/29 00:19:25;;;;;;;3.00;2.80;;;;;;;9.64;100.00;95845.28;7402630;19;20384;-90
2023/12/29 00:22:06;;;;;;;2.97;2.77;;;;;;;9.31;100.00;95785.41;7401274;19;20471;-90
2023/12/29 00:24:47;;;;;;;3.30;3.00;;;;;;;8.80;100.00;95723.09;7402380;19;20393;-89
2023/12/29 00:27:28;;;;;;;3.53;3.10;;;;;;;9.51;100.00;95816.28;7400483;19;20371;-90
2023/12/29 00:30:10;;;;;;;5.20;3.17;;;;;;;9.24;100.00;95772.72;7401817;19;20452;-90
2023/12/29 00:32:51;;;;;;;2.83;2.53;;;;;;;9.16;100.00;95759.59;7400613;19;20408;-90
2023/12/29 00:35:32;;;;;;;2.53;2.27;;;;;;;9.90;100.00;95863.72;7401978;19;20376;-90
2023/12/29 00:38:13;;;;;;;3.03;2.83;;;;;;;9.20;100.00;95757.94;7398882;19;20418;-90
2023/12/29 00:40:55;;;;;;;3.37;2.40;;;;;;;9.47;100.00;95802.25;7401858;19;20369;-89
2023/12/29 00:43:39;;;;;;;2.83;2.43;;;;;;;9.47;100.00;95810.09;7401539;19;20842;-90
2023/12/29 00:46:20;;;;;;;4.50;4.10;;;;;;;9.62;100.00;95822.03;7400760;19;20381;-90
2023/12/29 00:49:01;;;;;;;3.00;2.70;;;;;;;9.60;100.00;95808.47;7401132;19;20380;-90
2023/12/29 00:51:43;;;;;;;5.10;3.47;;;;;;;9.33;100.00;95767.53;7401172;19;20409;-90
2023/12/29 00:54:24;;;;;;;3.43;3.13;;;;;;;9.75;100.00;95833.47;7401060;19;20387;-90
2023/12/29 00:57:05;;;;;;;3.00;2.80;;;;;;;9.61;100.00;95814.47;7402010;19;20392;-90
2023/12/29 00:59:47;;;;;;;3.50;3.00;;;;;;;10.06;100.00;95883.97;7400820;19;20392;-90
2023/12/29 01:02:28;;;;;;;2.77;2.40;;;;;;;9.66;100.00;95828.19;7400157;19;20400;-89
2023/12/29 01:05:09;;;;;;;3.67;2.63;;;;;;;9.71;100.00;95830.69;7400905;19;20518;-90
2023/12/29 01:07:50;;;;;;;2.60;2.17;;;;;;;9.45;100.00;95791.31;7398079;19;20730;-90
2023/12/29 01:10:31;;;;;;;3.17;2.97;;;;;;;9.61;100.00;95815.25;7400796;19;20373;-90
2023/12/29 01:13:12;;;;;;;3.10;2.10;;;;;;;9.51;100.00;95802.41;7399220;19;20419;-90
2023/12/29 01:15:54;;;;;;;2.77;2.53;;;;;;;9.33;100.00;95782.47;7400217;19;20392;-90
2023/12/29 01:18:34;;;;;;;5.47;3.30;;;;;;;9.73;100.00;95833.00;7400335;19;20399;-90
2023/12/29 01:21:16;;;;;;;5.83;3.03;;;;;;;9.47;100.00;95791.78;7400518;19;20387;-90
2023/12/29 01:23:57;;;;;;;2.60;2.40;;;;;;;9.18;100.00;95755.63;7398418;19;20415;-90
2023/12/29 01:26:38;;;;;;;3.23;2.93;;;;;;;9.34;100.00;95782.16;7399226;19;20373;-90
2023/12/29 01:29:19;;;;;;;5.03;3.47;;;;;;;9.14;100.00;95746.81;7399814;19;20458;-90
2023/12/29 01:32:03;;;;;;;3.10;2.40;;;;;;;9.26;100.00;95769.81;7399710;19;20407;-89
2023/12/29 01:34:44;;;;;;;4.57;2.30;;;;;;;8.83;100.00;95707.56;7400553;19;20381;-90
2023/12/29 01:37:25;;;;;;;2.93;2.63;;;;;;;9.31;100.00;95777.53;7399395;19;20409;-90
2023/12/29 01:40:07;;;;;;;4.93;2.47;;;;;;;9.43;100.00;95790.03;7399759;19;20460;-90
2023/12/29 01:42:48;;;;;;;2.67;1.97;;;;;;;9.27;100.00;95768.72;7398402;19;20411;-90
2023/12/29 01:45:29;;;;;;;2.33;2.13;;;;;;;9.34;100.00;95774.31;7399508;19;20381;-92
2023/12/29 01:48:11;;;;;;;1.93;1.80;;;;;;;9.12;100.00;95740.31;7400072;19;20377;-90
2023/12/29 01:50:53;;;;;;;2.60;2.40;;;;;;;9.45;100.00;95801.78;7399144;19;20401;-90
2023/12/29 01:53:34;;;;;;;2.80;2.30;;;;;;;9.45;100.00;95801.00;7399299;19;20372;-89
2023/12/29 01:56:16;;;;;;;2.33;2.00;;;;;;;9.23;100.00;95768.56;7399062;19;20869;-90
2023/12/29 01:58:57;;;;;;;2.93;2.73;;;;;;;9.15;100.00;95758.03;7399675;19;20728;-90
2023/12/29 02:01:39;;;;;;;2.43;2.10;;;;;;;9.07;100.00;95733.41;7399182;19;20388;-90
2023/12/29 02:04:23;;;;;;;3.10;1.77;;;;;;;9.48;100.00;95780.22;7399576;19;20381;-89
2023/12/29 02:07:04;;;;;;;2.40;2.20;;;;;;;9.16;100.00;95736.78;7398473;19;20913;-90
2023/12/29 02:09:46;;;;;;;3.03;2.00;;;;;;;8.71;100.00;95657.66;7401088;19;20382;-90
2023/12/29 02:12:27;;;;;;;2.40;2.20;;;;;;;9.06;100.00;95710.91;7398175;19;20416;-91
2023/12/29 02:15:09;;;;;;;1.80;1.70;;;;;;;9.45;100.00;95761.72;7398525;19;20401;-90
2023/12/29 02:18:15;;;;;;;4.97;1.90;;;;;;;9.36;100.00;95745.97;7399025;19;20389;-91
2023/12/29 02:20:56;;;;;;;2.67;2.20;;;;;;;9.45;100.00;95759.88;7398299;19;20383;-90
2023/12/29 02:23:37;;;;;;;2.07;1.97;;;;;;;9.54;100.00;95771.13;7396765;19;20405;-90
2023/12/29 02:26:22;;;;;;;2.20;1.80;;;;;;;9.43;100.00;95743.66;7397362;19;20392;-90
2023/12/29 02:29:09;;;;;;;3.87;2.40;;;;;;;9.26;100.00;95714.81;7397819;19;20381;-91
2023/12/29 02:31:59;;;;;;;2.03;1.70;;;;;;;9.03;100.00;95682.69;7395813;19;20384;-90
2023/12/29 02:34:41;;;;;;;2.20;2.10;;;;;;;9.43;100.00;95743.66;7397737;19;20865;-90
2023/12/29 02:37:23;;;;;;;3.83;2.10;;;;;;;8.71;100.00;95631.50;7397925;19;20381;-90
2023/12/29 02:40:06;;;;;;;1.93;1.70;;;;;;;9.21;100.00;95704.50;7397441;19;20376;-89
2023/12/29 02:42:51;;;;;;;2.63;1.93;;;;;;;9.23;100.00;95725.91;7398632;19;20688;-90
2023/12/29 02:45:32;;;;;;;3.43;2.53;;;;;;;9.17;100.00;95695.69;7398658;19;20436;-90
2023/12/29 02:48:13;;;;;;;4.23;2.10;;;;;;;9.30;100.00;95715.75;7397466;19;20376;-90
2023/12/29 02:50:54;;;;;;;2.33;2.10;;;;;;;9.23;100.00;95703.09;7397159;19;20809;-90
2023/12/29 02:53:35;;;;;;;1.50;1.40;;;;;;;9.17;100.00;95690.44;7398211;19;20361;-90
2023/12/29 02:56:17;;;;;;;2.50;1.90;;;;;;;9.22;100.00;95696.31;7397205;19;20368;-89
2023/12/29 02:58:58;;;;;;;2.30;2.10;;;;;;;9.39;100.00;95708.69;7397385;19;20453;-90
2023/12/29 03:01:40;;;;;;;3.80;2.23;;;;;;;9.58;100.00;95728.63;7394586;19;20389;-90
2023/12/29 03:04:21;;;;;;;2.13;1.63;;;;;;;9.64;100.00;95719.53;7397592;19;20380;-90
2023/12/29 03:07:02;;;;;;;1.97;1.87;;;;;;;9.57;100.00;95709.50;7396446;19;20385;-90
2023/12/29 03:09:43;;;;;;;1.93;1.83;;;;;;;9.74;100.00;95727.88;7397405;19;20713;-90
2023/12/29 03:12:24;;;;;;;2.57;1.97;;;;;;;9.50;100.00;95683.00;7395403;19;20873;-90
2023/12/29 03:15:06;;;;;;;2.47;2.07;;;;;;;9.59;100.00;95686.41;7396605;19;20460;-90
2023/12/29 03:17:47;;;;;;;1.57;1.47;;;;;;;9.05;100.00;95594.19;7396482;19;20377;-90
2023/12/29 03:20:28;;;;;;;3.20;2.47;;;;;;;9.03;100.00;95606.78;7397507;19;20349;-91
2023/12/29 03:23:10;;;;;;;2.00;1.70;;;;;;;9.97;100.00;95727.72;7394563;19;20431;-89
2023/12/29 03:25:51;;;;;;;5.70;2.13;;;;;;;9.68;100.00;95684.53;7396902;19;20384;-91
2023/12/29 03:28:32;;;;;;;1.97;1.87;;;;;;;9.70;100.00;95676.38;7397123;19;20372;-90
2023/12/29 03:31:13;;;;;;;2.33;2.13;;;;;;;9.43;100.00;95648.59;7396021;19;20416;-90
2023/12/29 03:33:54;;;;;;;2.03;1.87;;;;;;;9.29;100.00;95629.63;7396477;19;20357;-90
2023/12/29 03:36:35;;;;;;;1.80;1.33;;;;;;;9.38;100.00;95625.19;7396425;19;20381;-90
2023/12/29 03:39:18;;;;;;;1.80;1.70;;;;;;;9.53;100.00;95656.19;7396244;19;20369;-90
2023/12/29 03:41:59;;;;;;;3.70;2.47;;;;;;;9.47;100.00;95655.56;7396052;19;20392;-90
2023/12/29 03:44:40;;;;;;;2.57;2.17;;;;;;;9.34;100.00;95632.13;7396039;19;20364;-91
2023/12/29 03:47:21;;;;;;;3.27;3.07;;;;;;;9.90;100.00;95722.97;7394175;19;20377;-91
2023/12/29 03:50:04;;;;;;;2.10;1.80;;;;;;;9.16;100.00;95613.75;7396107;19;20390;-90
2023/12/29 03:52:45;;;;;;;4.93;1.97;;;;;;;9.47;100.00;95658.19;7394036;19;20494;-91
2023/12/29 03:55:26;;;;;;;2.50;1.93;;;;;;;9.78;100.00;95699.19;7396351;19;20376;-89
2023/12/29 03:58:08;;;;;;;2.20;1.73;;;;;;;9.47;100.00;95647.72;7395704;19;20380;-90
2023/12/29 04:00:49;;;;;;;4.30;2.40;;;;;;;9.24;100.00;95620.84;7395517;19;20389;-90
2023/12/29 04:03:30;;;;;;;1.77;1.67;;;;;;;9.66;100.00;95697.19;7394597;19;20403;-90
2023/12/29 04:06:12;;;;;;;2.67;2.47;;;;;;;9.34;100.00;95648.59;7396140;19;20368;-90
2023/12/29 04:08:53;;;;;;;3.67;1.97;;;;;;;9.90;100.00;95728.19;7395664;19;20380;-90
2023/12/29 04:11:34;;;;;;;1.67;1.57;;;;;;;9.73;100.00;95701.97;7395080;19;20396;-90
2023/12/29 04:14:16;;;;;;;2.33;1.93;;;;;;;9.32;100.00;95639.53;7403040;19;20858;-91
2023/12/29 04:16:57;;;;;;;2.73;2.50;;;;;;;9.54;100.00;95674.19;7402946;19;20384;-90
2023/12/29 04:19:38;;;;;;;1.73;1.63;;;;;;;9.55;100.00;95669.72;7402507;19;20380;-90
2023/12/29 04:22:19;;;;;;;5.23;4.73;;;;;;;9.52;100.00;95658.03;7401692;19;20739;-90
2023/12/29 04:25:01;;;;;;;18.07;10.30;;;;;;;10.05;100.00;95747.94;7402478;19;20383;-90
2023/12/29 04:27:42;;;;;;;5.90;4.77;;;;;;;9.37;100.00;95648.00;7400572;19;20369;-90
2023/12/29 04:30:23;;;;;;;12.70;10.93;;;;;;;9.19;100.00;95615.78;7402376;19;20373;-90
2023/12/29 04:33:06;;;;;;;2.23;2.10;;;;;;;9.21;100.00;95624.09;7400925;19;20401;-90
2023/12/29 04:35:49;;;;;;;3.73;3.43;;;;;;;9.14;100.00;95621.16;7402386;19;20376;-90
2023/12/29 04:38:30;;;;;;;2.50;2.30;;;;;;;9.17;100.00;95644.13;7402789;19;20361;-90
2023/12/29 04:41:13;;;;;;;2.63;2.43;;;;;;;9.09;100.00;95628.38;7402162;19;20380;-90
2023/12/29 04:43:54;;;;;;;2.90;2.70;;;;;;;9.41;100.00;95684.81;7401851;19;20388;-90
2023/12/29 04:46:35;;;;;;;2.90;2.70;;;;;;;8.91;100.00;95624.97;7401747;19;20411;-90
2023/12/29 04:49:16;;;;;;;3.60;2.63;;;;;;;9.25;100.00;95681.84;7404545;19;20357;-91
2023/12/29 04:51:57;;;;;;;3.30;2.87;;;;;;;8.78;100.00;95615.38;7401026;19;20415;-91
2023/12/29 04:54:38;;;;;;;2.90;2.70;;;;;;;9.30;100.00;95696.66;7401699;19;20452;-91
2023/12/29 04:57:20;;;;;;;3.03;2.50;;;;;;;9.14;100.00;95686.59;7401261;19;20396;-90
2023/12/29 05:00:01;;;;;;;2.80;2.57;;;;;;;8.91;100.00;95632.81;7401783;19;20385;-90
2023/12/29 05:02:42;;;;;;;2.50;2.30;;;;;;;9.02;100.00;95681.16;7400267;19;20391;-90
2023/12/29 05:05:23;;;;;;;3.13;2.67;;;;;;;8.97;100.00;95670.06;7401033;19;20397;-91
2023/12/29 05:08:05;;;;;;;3.00;2.70;;;;;;;8.95;100.00;95673.00;7401502;19;20383;-89
2023/12/29 05:10:46;;;;;;;3.37;2.47;;;;;;;8.45;100.00;95612.31;7402492;19;20345;-90
2023/12/29 05:13:27;;;;;;;3.50;2.70;;;;;;;9.38;100.00;95762.16;7399055;19;20436;-90
2023/12/29 05:16:08;;;;;;;4.13;2.50;;;;;;;8.56;100.00;95640.50;7400302;19;20384;-90
2023/12/29 05:18:49;;;;;;;2.73;2.53;;;;;;;8.73;100.00;95678.28;7400493;19;20365;-91
2023/12/29 05:21:30;;;;;;;2.57;2.37;;;;;;;8.53;100.00;95638.50;7399835;19;20925;-90
2023/12/29 05:24:12;;;;;;;4.10;2.37;;;;;;;8.75;100.00;95682.13;7396909;19;20389;-91
2023/12/29 05:26:53;;;;;;;3.87;2.53;;;;;;;8.39;100.00;95631.81;7398891;19;20404;-91
2023/12/29 05:29:34;;;;;;;2.97;2.67;;;;;;;8.45;100.00;95636.59;7400799;19;20381;-91
2023/12/29 05:32:15;;;;;;;3.07;2.77;;;;;;;8.50;100.00;95648.78;7398606;19;20412;-91
2023/12/29 05:34:56;;;;;;;4.10;3.67;;;;;;;8.52;100.00;95654.50;7399940;19;20376;-91
2023/12/29 05:37:37;;;;;;;2.10;2.00;;;;;;;8.61;100.00;95663.13;7401743;19;20369;-90
2023/12/29 05:40:18;;;;;;;3.40;3.10;;;;;;;8.31;100.00;95621.00;7400249;19;20353;-91
2023/12/29 05:42:59;;;;;;;3.73;2.57;;;;;;;8.46;100.00;95648.59;7398462;19;20384;-90
2023/12/29 05:45:41;;;;;;;3.10;2.90;;;;;;;8.29;100.00;95630.22;7399224;19;20381;-90
2023/12/29 05:48:22;;;;;;;2.70;2.50;;;;;;;8.54;100.00;95658.34;7399274;19;20389;-89
2023/12/29 05:51:10;;;;;;;4.07;2.60;;;;;;;9.22;100.00;95763.63;7399112;19;20372;-90
2023/12/29 05:53:51;;;;;;;3.60;2.40;;;;;;;8.80;100.00;95707.41;7399736;19;20408;-90
2023/12/29 05:56:32;;;;;;;3.27;2.80;;;;;;;8.63;100.00;95681.91;7398879;19;20403;-91
2023/12/29 05:59:14;;;;;;;3.60;3.20;;;;;;;8.51;100.00;95655.56;7398796;19;20425;-90
2023/12/29 06:01:56;;;;;;;5.40;4.90;;;;;;;8.49;100.00;95657.69;7398269;19;20392;-90
2023/12/29 06:04:37;;;;;;;3.57;2.53;;;;;;;8.33;100.00;95639.78;7398637;19;20372;-90
2023/12/29 06:07:18;;;;;;;3.73;3.43;;;;;;;8.49;100.00;95673.38;7397480;19;20381;-90
2023/12/29 06:09:59;;;;;;;4.80;2.63;;;;;;;8.30;100.00;95634.38;7399157;19;20381;-90
2023/12/29 06:12:41;;;;;;;3.70;2.87;;;;;;;8.51;100.00;95661.56;7397485;19;20403;-89
2023/12/29 06:15:22;;;;;;;2.53;2.33;;;;;;;8.50;100.00;95662.63;7399088;19;20432;-91
2023/12/29 06:18:03;;;;;;;3.00;2.70;;;;;;;8.47;100.00;95663.22;7398992;19;20377;-90
2023/12/29 06:20:45;;;;;;;3.40;3.13;;;;;;;8.55;100.00;95683.44;7398844;19;20375;-91
2023/12/29 06:23:26;;;;;;;3.33;3.07;;;;;;;8.31;100.00;95643.75;7396102;19;20416;-91
2023/12/29 06:26:17;;;;;;;3.77;3.47;;;;;;;8.40;100.00;95656.91;7397404;19;20377;-91
2023/12/29 06:28:58;;;;;;;6.30;4.00;;;;;;;8.65;100.00;95700.72;7397874;19;20388;-90
2023/12/29 06:31:41;;;;;;;4.97;2.90;;;;;;;8.11;100.00;95626.75;7397445;19;20397;-90
2023/12/29 06:34:23;;;;;;;2.80;2.60;;;;;;;8.26;100.00;95641.28;7398367;19;20373;-90
2023/12/29 06:37:04;;;;;;;3.70;3.20;;;;;;;8.42;100.00;95655.53;7398241;19;20416;-90
2023/12/29 06:39:45;;;;;;;8.53;7.73;;;;;;;8.49;100.00;95676.75;7399356;19;20376;-91
2023/12/29 06:42:27;;;;;;;10.70;9.63;;;;;;;8.45;100.00;95667.22;7396800;19;20415;-90
2023/12/29 06:45:08;;;;;;;3.53;2.37;;;;;;;8.61;100.00;95692.69;7397762;19;20862;-90
2023/12/29 06:47:49;;;;;;;3.30;2.87;;;;;;;8.46;100.00;95674.75;7396750;19;20377;-90
2023/12/29 06:50:31;;;;;;;3.23;2.67;;;;;;;8.52;100.00;95670.97;7397144;19;20382;-90
2023/12/29 06:53:12;;;;;;;3.30;3.00;;;;;;;8.59;100.00;95694.81;7396582;19;20403;-91
2023/12/29 06:55:53;;;;;;;2.63;2.43;;;;;;;8.39;100.00;95656.13;7397075;19;20454;-91
2023/12/29 06:58:35;;;;;;;4.20;2.83;;;;;;;8.63;100.00;95693.16;7397123;19;20440;-90
2023/12/29 07:01:16;;;;;;;3.10;2.90;;;;;;;8.61;100.00;95700.53;7397499;19;20357;-91
2023/12/29 07:03:57;;;;;;;2.83;2.40;;;;;;;8.96;100.00;95742.56;7397645;19;20384;-91
2023/12/29 07:06:38;;;;;;;3.37;3.10;;;;;;;8.51;100.00;95677.25;7397174;19;20377;-90
2023/12/29 07:09:19;;;;;;;4.50;2.70;;;;;;;8.46;100.00;95680.00;7398345;19;20376;-91
2023/12/29 07:12:00;;;;;;;4.03;3.40;;;;;;;8.66;100.00;95710.13;7397347;19;20456;-90
2023/12/29 07:14:42;;;;;;;2.93;2.60;;;;;;;8.69;100.00;95714.75;7398582;19;20380;-91
2023/12/29 07:17:23;;;;;;;3.63;3.43;;;;;;;8.44;100.00;95681.38;7398151;19;20369;-90
2023/12/29 07:20:06;;;;;;;4.80;3.93;;;;;;;8.19;100.00;95644.31;7398226;19;20392;-90
2023/12/29 07:22:47;;;;;;;4.77;3.73;;;;;;;8.52;100.00;95691.13;7399476;19;20499;-91
2023/12/29 07:25:29;;;;;;;5.70;3.73;;;;;;;8.39;100.00;95676.28;7413899;19;20377;-90
2023/12/29 07:28:10;;;;;;;3.70;3.40;;;;;;;8.45;100.00;95688.13;7414919;19;20377;-91
2023/12/29 07:30:51;;;;;;;4.97;4.67;;;;;;;8.27;100.00;95650.66;7414755;19;20380;-86
2023/12/29 07:33:33;;;;;;;3.60;3.30;;;;;;;7.84;100.00;95578.00;7398905;19;20405;-89
2023/12/29 07:36:14;;;;;;;3.60;3.30;;;;;;;8.91;100.00;95740.09;7397919;19;20389;-91
2023/12/29 07:38:55;;;;;;;3.37;3.10;;;;;;;8.28;100.00;95645.13;7397000;19;20381;-91
2023/12/29 07:41:41;;;;;;;3.40;3.10;;;;;;;8.16;100.00;95649.38;7396973;19;20413;-91
2023/12/29 07:44:28;;;;;;;5.00;3.77;;;;;;;8.43;100.00;95671.97;7397070;19;20377;-90
2023/12/29 07:47:11;;;;;;;4.03;3.73;;;;;;;8.48;100.00;95687.53;7397881;19;20369;-91
2023/12/29 07:49:52;;;;;;;6.43;3.50;;;;;;;8.49;100.00;95687.22;7404186;19;20388;-90
2023/12/29 07:52:34;;;;;;;2.57;2.37;;;;;;;8.47;100.00;95678.91;7403121;19;20400;-91
2023/12/29 07:55:16;;;;;;;4.30;3.20;;;;;;;8.64;100.00;95710.41;7403860;19;20413;-90
2023/12/29 07:57:57;;;;;;;4.13;3.70;;;;;;;8.67;100.00;95713.50;7404364;19;20388;-90
2023/12/29 08:00:38;;;;;;;4.63;4.23;;;;;;;8.52;100.00;95688.50;7403843;19;20455;-90
2023/12/29 08:03:19;;;;;;;4.80;3.70;;;;;;;8.65;100.00;95721.66;7403298;19;20392;-91
2023/12/29 08:06:00;;;;;;;6.10;3.13;;;;;;;7.93;100.00;95606.78;7403122;19;20384;-91
2023/12/29 08:08:41;;;;;;;3.70;3.40;;;;;;;8.54;100.00;95702.03;7403434;19;20394;-91
2023/12/29 08:11:22;;;;;;;7.70;6.73;;;;;;;8.59;100.00;95696.69;7403131;19;20380;-91
2023/12/29 08:14:03;;;;;;;6.17;5.43;;;;;;;8.88;100.00;95743.28;7402925;19;20383;-90
2023/12/29 08:16:45;;;;;;;9.50;8.60;;;;;;;8.68;100.00;95700.13;7403489;19;20384;-91
2023/12/29 08:19:27;;;;;;;4.70;4.30;;;;;;;9.30;100.00;95791.69;7404142;19;20372;-91
2023/12/29 08:22:08;;;;;;;4.70;4.30;;;;;;;8.88;100.00;95712.66;7402012;19;20480;-91
2023/12/29 08:24:49;;;;;;;3.40;3.10;;;;;;;9.40;100.00;95777.56;7402837;19;20376;-91
2023/12/29 08:27:31;;;;;;;3.77;3.50;;;;;;;9.13;100.00;95741.88;7403327;19;20373;-90
2023/12/29 08:30:12;;;;;;;3.93;3.63;;;;;;;8.98;100.00;95698.56;7402294;19;20889;-91
2023/12/29 08:32:53;;;;;;;5.60;4.20;;;;;;;9.22;100.00;95727.75;7401030;19;20392;-91
2023/12/29 08:35:34;;;;;;;3.80;3.43;;;;;;;9.43;100.00;95762.00;7403407;19;20369;-90
2023/12/29 08:38:19;;;;;;;4.47;3.80;;;;;;;9.89;100.00;95817.63;7403339;19;20385;-90
2023/12/29 08:41:01;;;;;;;4.03;3.63;;;;;;;9.75;100.00;95792.31;7403224;19;20377;-91
2023/12/29 08:43:44;;;;;;;3.60;3.30;;;;;;;9.36;100.00;95725.03;7404349;19;20420;-91
2023/12/29 08:46:25;;;;;;;3.43;2.97;;;;;;;9.33;100.00;95736.09;7401444;19;20376;-91
2023/12/29 08:49:07;;;;;;;4.13;3.83;;;;;;;9.25;100.00;95718.50;7401711;19;20385;-91
2023/12/29 08:51:48;;;;;;;3.80;3.00;;;;;;;9.27;100.00;95702.50;7403447;19;20388;-90
2023/12/29 08:54:29;;;;;;;6.50;4.47;;;;;;;9.49;100.00;95739.06;7402604;19;20381;-91
2023/12/29 08:57:11;;;;;;;3.80;2.60;;;;;;;9.68;100.00;95778.88;7402102;19;20384;-91
2023/12/29 08:59:53;;;;;;;3.90;2.57;;;;;;;9.25;100.00;95718.50;7399588;19;20391;-91
2023/12/29 09:02:34;;;;;;;3.80;2.93;;;;;;;9.39;100.00;95740.13;7400299;19;20409;-91
2023/12/29 09:05:15;;;;;;;2.93;2.60;;;;;;;9.61;100.00;95783.78;7401631;19;20397;-91
2023/12/29 09:07:56;;;;;;;2.73;2.40;;;;;;;9.82;100.00;95815.44;7399370;19;20874;-91
2023/12/29 09:10:38;;;;;;;2.90;2.60;;;;;;;9.50;100.00;95767.59;7401374;19;20384;-91
2023/12/29 09:13:22;;;;;;;2.17;1.87;;;;;;;9.57;100.00;95772.38;7399291;19;20420;-91
2023/12/29 09:16:03;;;;;;;4.80;2.57;;;;;;;9.34;100.00;95729.78;7403046;19;20373;-91
2023/12/29 09:18:44;;;;;;;3.93;2.90;;;;;;;9.63;100.00;95776.41;7400513;19;20401;-91
2023/12/29 09:21:25;;;;;;;3.13;2.53;;;;;;;8.85;100.00;95650.47;7400780;19;20897;-91
2023/12/29 09:24:07;;;;;;;2.23;2.03;;;;;;;9.56;100.00;95755.09;7398272;19;20416;-91
2023/12/29 09:26:48;;;;;;;3.40;2.67;;;;;;;9.51;100.00;95752.63;7399554;19;20369;-91
2023/12/29 09:29:29;;;;;;;2.33;2.13;;;;;;;9.65;100.00;95766.38;7400432;19;20381;-90
2023/12/29 09:32:10;;;;;;;2.27;2.00;;;;;;;9.71;100.00;95762.56;7399741;19;20423;-91
2023/12/29 09:34:51;;;;;;;2.70;2.10;;;;;;;10.17;100.00;95845.13;7401321;19;20392;-91
2023/12/29 09:37:32;;;;;;;3.20;2.23;;;;;;;9.76;100.00;95787.84;7399682;19;20395;-91
2023/12/29 09:40:13;;;;;;;2.37;2.17;;;;;;;10.05;100.00;95816.88;7401200;19;20381;-89
2023/12/29 09:42:55;;;;;;;3.90;3.50;;;;;;;9.71;100.00;95746.06;7398971;19;20531;-91
2023/12/29 09:45:38;;;;;;;2.33;1.73;;;;;;;10.37;100.00;95838.50;7400638;19;20380;-91
2023/12/29 09:48:20;;;;;;;2.23;1.73;;;;;;;10.42;100.00;95838.41;7400624;19;20706;-92
2023/12/29 09:51:01;;;;;;;2.90;2.60;;;;;;;9.92;100.00;95759.34;7400593;19;20389;-91
2023/12/29 09:53:43;;;;;;;2.80;2.23;;;;;;;9.61;100.00;95707.06;7400645;19;20695;-92
2023/12/29 09:56:24;;;;;;;3.00;2.10;;;;;;;10.43;100.00;95824.97;7399919;19;20458;-91
2023/12/29 09:59:09;;;;;;;2.07;1.87;;;;;;;9.77;100.00;95729.09;7400969;19;20389;-91
2023/12/29 10:01:51;;;;;;;2.63;1.97;;;;;;;9.94;100.00;95717.88;7399863;19;20389;-91
2023/12/29 10:04:35;;;;;;;3.10;2.50;;;;;;;9.68;100.00;95681.16;7400679;19;20410;-91
2023/12/29 10:07:26;;;;;;;2.70;2.50;;;;;;;9.96;100.00;95702.59;7398839;19;20388;-91
2023/12/29 10:10:14;;;;;;;6.23;2.20;;;;;;;10.43;100.00;95751.53;7398886;19;20405;-90
2023/12/29 10:12:56;;;;;;;3.17;1.70;;;;;;;10.28;100.00;95704.75;7398194;19;20401;-92
2023/12/29 10:16:07;;;;;;;3.60;2.63;;;;;;;11.11;100.00;95822.59;7401454;19;20365;-91
2023/12/29 10:19:10;;;;;;;2.60;2.30;;;;;;;10.86;100.00;95742.03;7399741;19;20385;-91
2023/12/29 10:22:23;;;;;;;3.07;1.83;;;;;;;10.54;100.00;95701.34;7399697;19;20478;-91
2023/12/29 10:25:05;;;;;;;2.23;1.50;;;;;;;10.67;100.00;95727.41;7399627;19;20377;-91
2023/12/29 10:27:49;;;;;;;0.80;0.80;;;;;;;11.40;100.00;95806.13;7397919;19;20376;-91
2023/12/29 10:30:31;;;;;;;1.10;1.00;;;;;;;10.72;100.00;95695.75;7399797;19;20399;-91
2023/12/29 10:33:21;;;;;;;3.47;2.40;;;;;;;10.42;100.00;95658.16;7397218;19;20403;-91
2023/12/29 10:36:05;;;;;;;1.30;1.10;;;;;;;10.40;100.00;95675.31;7399633;19;20408;-91
2023/12/29 10:38:48;;;;;;;1.20;1.10;;;;;;;10.76;100.00;95724.75;7398479;19;20372;-92
2023/12/29 10:41:29;;;;;;;3.53;2.07;;;;;;;10.90;100.00;95748.19;7398033;19;20419;-92
2023/12/29 10:44:11;;;;;;;1.70;1.50;;;;;;;10.59;100.00;95696.69;7397461;19;20383;-91
2023/12/29 10:46:52;;;;;;;1.67;1.57;;;;;;;10.26;100.00;95623.00;7396659;19;20427;-91
2023/12/29 10:49:33;;;;;;;4.53;4.10;;;;;;;10.54;100.00;95654.91;7397483;19;20394;-92
2023/12/29 10:52:15;;;;;;;6.97;5.60;;;;;;;10.73;100.00;95688.63;7396343;19;20416;-91
2023/12/29 10:55:10;;;;;;;10.73;8.83;;;;;;;11.28;100.00;95762.13;7396955;19;20391;-91
2023/12/29 10:58:00;;;;;;;3.63;3.30;;;;;;;11.26;100.00;95771.41;7397202;19;20388;-91
2023/12/29 11:00:41;;;;;;;1.93;1.40;;;;;;;10.71;100.00;95688.94;7397303;19;20388;-92
2023/12/29 11:03:23;;;;;;;13.77;8.30;;;;;;;10.64;100.00;95674.75;7395578;19;20412;-91
2023/12/29 11:06:05;;;;;;;9.97;8.03;;;;;;;10.45;100.00;95654.13;7397335;19;20381;-91
2023/12/29 11:08:46;;;;;;;23.67;14.27;;;;;;;10.39;100.00;95637.78;7397530;19;20373;-92
2023/12/29 11:11:27;;;;;;;39.50;22.40;;;;;;;10.42;100.00;95639.03;7396359;19;20393;-91
2023/12/29 11:14:11;;;;;;;25.60;16.67;;;;;;;10.21;100.00;95615.28;7396582;19;20373;-91
2023/12/29 11:16:54;;;;;;;3.60;2.80;;;;;;;11.07;100.00;95742.91;7397402;19;20408;-92
2023/12/29 11:19:36;;;;;;;5.03;4.50;;;;;;;10.44;100.00;95660.47;7396138;19;20373;-91
2023/12/29 11:22:18;;;;;;;2.40;2.13;;;;;;;10.38;100.00;95659.09;7396841;19;20433;-92
2023/12/29 11:24:59;;;;;;;6.57;5.20;;;;;;;10.60;100.00;95690.38;7404309;19;20363;-91
2023/12/29 11:27:42;;;;;;;4.57;4.17;;;;;;;10.91;100.00;95736.59;7401436;19;20803;-91
2023/12/29 11:30:23;;;;;;;1.80;1.70;;;;;;;10.45;100.00;95669.13;7404197;19;20387;-92
2023/12/29 11:33:15;;;;;;;1.83;1.73;;;;;;;11.01;100.00;95750.16;7401536;19;20408;-91
2023/12/29 11:36:08;;;;;;;2.17;1.90;;;;;;;10.41;100.00;95682.84;7403389;19;20381;-92
2023/12/29 11:39:18;;;;;;;2.40;2.23;;;;;;;10.90;100.00;95750.81;7404336;19;20393;-92
2023/12/29 11:42:14;;;;;;;2.50;1.70;;;;;;;10.02;100.00;95633.22;7402528;19;20389;-92
2023/12/29 11:44:55;;;;;;;1.37;1.27;;;;;;;10.40;100.00;95675.31;7403526;19;20703;-91
2023/12/29 11:48:02;;;;;;;1.40;1.30;;;;;;;10.91;100.00;95750.53;7400767;19;20396;-91
2023/12/29 11:51:03;;;;;;;2.30;1.67;;;;;;;10.11;100.00;95615.63;7402950;19;20384;-90
2023/12/29 11:53:44;;;;;;;5.27;2.67;;;;;;;10.27;100.00;95611.41;7403390;19;20372;-89
2023/12/29 11:56:40;;;;;;;3.70;3.50;;;;;;;10.43;100.00;95636.09;7402382;19;20380;-90
2023/12/29 11:59:26;;;;;;;1.90;1.80;;;;;;;10.99;100.00;95726.09;7402484;19;20874;-90
2023/12/29 12:02:28;;;;;;;2.83;2.63;;;;;;;10.63;100.00;95678.47;7401993;19;20412;-90
2023/12/29 12:05:12;;;;;;;2.80;2.00;;;;;;;10.47;100.00;95644.09;7402518;19;20395;-90
2023/12/29 12:07:58;;;;;;;2.43;2.23;;;;;;;10.21;100.00;95599.53;7400464;19;20391;-90
2023/12/29 12:10:41;;;;;;;2.20;2.00;;;;;;;10.19;100.00;95604.34;7402043;19;20379;-90
2023/12/29 12:13:45;;;;;;;2.37;2.17;;;;;;;10.86;100.00;95706.03;7399266;19;20414;-90
2023/12/29 12:16:47;;;;;;;3.47;3.20;;;;;;;10.90;100.00;95700.94;7403476;19;20365;-90
2023/12/29 12:19:34;;;;;;;5.00;4.70;;;;;;;10.22;100.00;95606.31;7401554;19;20380;-90
2023/12/29 12:22:20;;;;;;;2.00;1.90;;;;;;;10.00;100.00;95568.00;7400329;19;20900;-90
2023/12/29 12:25:03;;;;;;;3.67;3.37;;;;;;;10.92;100.00;95675.16;7401476;19;20452;-90
2023/12/29 12:27:45;;;;;;;2.43;1.90;;;;;;;10.24;100.00;95580.56;7399451;19;20379;-90
2023/12/29 12:30:26;;;;;;;2.80;2.23;;;;;;;10.54;100.00;95623.41;7401302;19;20391;-90
2023/12/29 12:33:11;;;;;;;6.60;4.40;;;;;;;10.54;100.00;95605.03;7399510;19;20396;-90
2023/12/29 12:36:00;;;;;;;1.77;1.67;;;;;;;10.43;100.00;95578.38;7401307;19;20385;-90
2023/12/29 12:38:51;;;;;;;4.30;3.90;;;;;;;10.68;100.00;95612.72;7401651;19;20381;-90
2023/12/29 12:41:33;;;;;;;1.80;1.70;;;;;;;10.98;100.00;95645.78;7400427;19;20432;-90
2023/12/29 12:44:14;;;;;;;1.87;1.67;;;;;;;10.54;100.00;95578.81;7401599;19;20400;-90